LEGR/GRX METAR and TAF weather

Enter ICAO airport designator
Station Type Date Time Source
LEGR METAR 2020/04/07 06:30 UTC NOAA

LEGR 070630Z AUTO 09002KT 2500 BR FEW001 08/08 Q1024


Station Type Date Time Source
LEGR Decoded METAR 2020/04/07 06:30 UTC NOAA

Granada / Aeropuerto, Spain (LEGR) 37-11N 003-47W 570M
Apr 07, 2020 - 02:30 AM EDT / 2020.04.07 0630 UTC
Wind: from the E (090 degrees) at 2 MPH (2 KT):0
Visibility: 1 mile(s):0
Sky conditions: mostly clear
Weather: mist
Temperature: 46 F (8 C)
Dew Point: 46 F (8 C)
Relative Humidity: 100%
Pressure (altimeter): 30.24 in. Hg (1024 hPa)
ob: LEGR 070630Z AUTO 09002KT 2500 BR FEW001 08/08 Q1024
cycle: 6

Station Type Date Time Source
LEGR TAF 2020/04/07 03:31 UTC NOAA

TAF LEGR 070200Z 0703/0803 VRB02KT 9999 FEW035 TX22/0715Z TN06/0706Z PROB40
TEMPO 0716/0719 21010KT

Example: see airport list